createdAt,value
2023-05-13T00:01:31.827Z,82.00
2023-05-13T00:03:59.781Z,81.80
2023-05-13T00:06:27.748Z,82.00
2023-05-13T00:08:56.436Z,82.00
2023-05-13T00:11:25.748Z,82.10
2023-05-13T00:13:53.741Z,82.30
2023-05-13T00:16:24.187Z,82.30
2023-05-13T00:18:52.341Z,82.20
2023-05-13T00:21:20.330Z,82.50
2023-05-13T00:23:48.431Z,82.40
2023-05-13T00:26:16.372Z,82.40
2023-05-13T00:28:45.717Z,82.40
2023-05-13T00:31:13.664Z,82.50
2023-05-13T00:33:41.633Z,82.30
2023-05-13T00:36:12.177Z,82.40
2023-05-13T00:38:40.149Z,82.60
2023-05-13T00:41:08.489Z,82.60
2023-05-13T00:43:36.448Z,82.70
2023-05-13T00:46:06.276Z,82.70
2023-05-13T00:48:34.960Z,83.00
2023-05-13T00:51:03.042Z,83.20
2023-05-13T00:53:33.500Z,83.20
2023-05-13T00:56:01.965Z,83.30
2023-05-13T00:58:29.908Z,83.20
2023-05-13T01:01:09.024Z,83.20
2023-05-13T01:03:47.198Z,83.50
2023-05-13T01:06:20.033Z,83.60
2023-05-13T01:08:56.752Z,83.50
2023-05-13T01:11:29.050Z,83.60
2023-05-13T01:14:06.968Z,83.50
2023-05-13T01:16:40.650Z,83.50
2023-05-13T01:19:18.173Z,83.80
2023-05-13T01:21:54.607Z,84.00
2023-05-13T01:24:22.675Z,83.80
2023-05-13T01:26:50.796Z,83.80
2023-05-13T01:29:19.014Z,83.70
2023-05-13T01:31:47.848Z,83.70
2023-05-13T01:34:16.468Z,83.70
2023-05-13T01:36:45.321Z,83.60
2023-05-13T01:39:14.924Z,83.70
2023-05-13T01:41:42.985Z,83.70
2023-05-13T01:44:10.939Z,83.90
2023-05-13T01:46:39.336Z,83.80
2023-05-13T01:49:09.381Z,83.90
2023-05-13T01:51:37.914Z,84.00
2023-05-13T01:54:06.182Z,84.20
2023-05-13T01:56:36.041Z,84.40
2023-05-13T01:59:04.152Z,84.20
2023-05-13T02:01:32.167Z,84.30
2023-05-13T02:04:00.366Z,84.40
2023-05-13T02:06:28.563Z,84.50
2023-05-13T02:08:56.598Z,84.60
2023-05-13T02:11:24.562Z,84.80
2023-05-13T02:13:53.882Z,85.10
2023-05-13T02:16:23.027Z,85.20
2023-05-13T02:18:51.470Z,85.30
2023-05-13T02:21:19.458Z,85.30
2023-05-13T02:23:47.578Z,85.50
2023-05-13T02:26:15.533Z,85.50
2023-05-13T02:28:43.566Z,85.60
2023-05-13T02:31:12.885Z,85.30
2023-05-13T02:33:40.834Z,85.40
2023-05-13T02:36:09.059Z,85.60
2023-05-13T02:38:37.067Z,85.80
2023-05-13T02:41:05.188Z,86.30
2023-05-13T02:43:33.204Z,86.10
2023-05-13T02:46:01.166Z,86.30
2023-05-13T02:48:30.707Z,86.30
2023-05-13T02:50:58.648Z,86.50
2023-05-13T02:53:26.618Z,86.60
2023-05-13T02:55:54.646Z,87.30
2023-05-13T02:58:22.642Z,86.60
2023-05-13T03:00:50.604Z,86.50
2023-05-13T03:03:18.701Z,86.60
2023-05-13T03:05:48.062Z,87.20
2023-05-13T03:08:16.050Z,87.30
2023-05-13T03:10:45.457Z,86.70
2023-05-13T03:13:13.453Z,86.80
2023-05-13T03:15:44.115Z,86.80
2023-05-13T03:18:12.523Z,86.90
2023-05-13T03:20:40.519Z,86.70
2023-05-13T03:23:09.930Z,86.70
2023-05-13T03:25:37.937Z,86.60
2023-05-13T03:28:06.458Z,86.30
2023-05-13T03:30:34.448Z,86.50
2023-05-13T03:33:02.450Z,86.50
2023-05-13T03:35:30.599Z,86.60
2023-05-13T03:37:58.550Z,86.80
2023-05-13T03:40:27.909Z,86.90
2023-05-13T03:42:56.125Z,86.90
2023-05-13T03:45:24.085Z,87.00
2023-05-13T03:47:52.104Z,87.00
2023-05-13T03:50:20.273Z,87.00
2023-05-13T03:52:48.567Z,87.10
2023-05-13T03:55:16.530Z,87.10
2023-05-13T03:57:50.160Z,87.20
2023-05-13T04:00:18.496Z,87.30
2023-05-13T04:02:46.696Z,87.30
2023-05-13T04:05:14.971Z,87.40
2023-05-13T04:07:43.090Z,87.60
2023-05-13T04:10:18.824Z,87.70
2023-05-13T04:12:48.594Z,87.50
2023-05-13T04:15:16.604Z,87.80
2023-05-13T04:17:44.610Z,87.80
2023-05-13T04:20:13.126Z,88.00
2023-05-13T04:22:41.088Z,87.90
2023-05-13T04:25:09.828Z,88.00
2023-05-13T04:27:37.844Z,88.10
2023-05-13T04:30:08.564Z,88.10
2023-05-13T04:32:36.876Z,88.10
2023-05-13T04:35:05.202Z,88.20
2023-05-13T04:37:33.208Z,88.30
2023-05-13T04:40:01.441Z,88.20
2023-05-13T04:42:29.362Z,88.10
2023-05-13T04:44:57.457Z,88.00
2023-05-13T04:47:26.799Z,88.10
2023-05-13T04:49:54.886Z,88.10
2023-05-13T04:52:23.319Z,88.20
2023-05-13T04:54:51.299Z,89.00
2023-05-13T04:57:19.356Z,88.40
2023-05-13T04:59:47.343Z,88.30
2023-05-13T05:02:15.315Z,89.00
2023-05-13T05:04:45.561Z,88.10
2023-05-13T05:07:13.636Z,88.10
2023-05-13T05:09:41.610Z,88.00
2023-05-13T05:12:09.890Z,87.90
2023-05-13T05:14:38.193Z,87.70
2023-05-13T05:17:06.475Z,87.70
2023-05-13T05:19:34.516Z,87.70
2023-05-13T05:22:03.913Z,87.70
2023-05-13T05:24:31.884Z,87.90
2023-05-13T05:26:59.850Z,87.80
2023-05-13T05:29:28.130Z,87.90
2023-05-13T05:31:56.233Z,87.70
2023-05-13T05:34:24.279Z,87.60
2023-05-13T05:36:52.272Z,87.30
2023-05-13T05:39:22.081Z,87.20
2023-05-13T05:41:50.104Z,87.60
2023-05-13T05:44:18.153Z,87.60
2023-05-13T05:46:46.158Z,86.80
2023-05-13T05:49:14.103Z,86.50
2023-05-13T05:51:42.089Z,85.90
2023-05-13T05:54:10.107Z,86.50
2023-05-13T05:56:39.442Z,85.60
2023-05-13T05:59:07.384Z,85.80
2023-05-13T06:01:36.838Z,85.90
2023-05-13T06:04:06.688Z,86.00
2023-05-13T06:06:34.892Z,85.70
2023-05-13T06:09:02.924Z,85.50
2023-05-13T06:11:30.934Z,85.20
2023-05-13T06:14:00.555Z,85.30
2023-05-13T06:16:28.575Z,85.20
2023-05-13T06:18:56.645Z,84.50
2023-05-13T06:21:24.634Z,84.40
2023-05-13T06:23:52.623Z,83.80
2023-05-13T06:26:20.844Z,83.80
2023-05-13T06:28:49.015Z,84.40
2023-05-13T06:31:18.849Z,84.10
2023-05-13T06:33:46.849Z,84.10
2023-05-13T06:36:15.250Z,84.20
2023-05-13T06:38:43.216Z,84.10
2023-05-13T06:41:11.203Z,83.80
2023-05-13T06:43:39.838Z,84.10
2023-05-13T06:46:07.778Z,84.10
2023-05-13T06:48:37.111Z,83.90
2023-05-13T06:51:05.588Z,83.80
2023-05-13T06:53:33.543Z,83.20
2023-05-13T06:56:01.478Z,83.40
2023-05-13T06:58:29.458Z,83.30
2023-05-13T07:00:57.480Z,82.80
2023-05-13T07:03:25.945Z,82.70
2023-05-13T07:05:55.605Z,82.50
2023-05-13T07:08:23.834Z,82.40
2023-05-13T07:10:51.827Z,81.90
2023-05-13T07:13:20.402Z,82.10
2023-05-13T07:15:48.369Z,82.40
2023-05-13T07:18:16.386Z,82.10
2023-05-13T07:20:44.430Z,82.30
2023-05-13T07:23:13.926Z,80.90
2023-05-13T07:25:41.880Z,79.90
2023-05-13T07:28:09.874Z,80.20
2023-05-13T07:30:40.415Z,79.10
2023-05-13T07:33:08.589Z,78.90
2023-05-13T07:35:37.508Z,79.10
2023-05-13T07:38:05.712Z,79.10
2023-05-13T07:40:35.060Z,78.90
2023-05-13T07:43:03.115Z,78.50
2023-05-13T07:45:32.284Z,77.60
2023-05-13T07:48:00.301Z,76.60
2023-05-13T07:50:28.282Z,76.40
2023-05-13T07:52:56.255Z,75.60
2023-05-13T07:55:24.378Z,74.60
2023-05-13T07:57:53.754Z,74.60
2023-05-13T08:00:22.044Z,75.10
2023-05-13T08:02:50.108Z,75.30
2023-05-13T08:05:18.471Z,73.90
2023-05-13T08:07:46.448Z,74.00
2023-05-13T08:10:14.741Z,73.90
2023-05-13T08:12:43.399Z,74.20
2023-05-13T08:15:14.327Z,74.70
2023-05-13T08:17:42.354Z,74.80
2023-05-13T08:20:11.494Z,74.10
2023-05-13T08:22:39.497Z,73.70
2023-05-13T08:25:07.838Z,74.10
2023-05-13T08:27:36.478Z,74.60
2023-05-13T08:30:04.765Z,75.30
2023-05-13T08:32:34.165Z,75.10
2023-05-13T08:35:02.273Z,75.00
2023-05-13T08:37:30.279Z,75.30
2023-05-13T08:40:00.527Z,74.40
2023-05-13T08:42:32.087Z,74.00
2023-05-13T08:45:00.986Z,74.60
2023-05-13T08:47:38.335Z,74.80
2023-05-13T08:50:08.063Z,75.20
2023-05-13T08:52:36.289Z,73.70
2023-05-13T08:55:07.187Z,74.40
2023-05-13T08:57:35.147Z,74.00
2023-05-13T09:00:03.412Z,73.70
2023-05-13T09:02:31.501Z,74.00
2023-05-13T09:05:05.773Z,73.70
2023-05-13T09:07:34.054Z,73.50
2023-05-13T09:10:02.249Z,72.20
2023-05-13T09:12:55.189Z,72.40
2023-05-13T09:15:25.284Z,72.70
2023-05-13T09:17:56.212Z,71.90
2023-05-13T09:20:26.800Z,72.20
2023-05-13T09:22:59.794Z,71.60
2023-05-13T09:25:28.788Z,72.60
2023-05-13T09:27:59.154Z,72.90
2023-05-13T09:30:27.952Z,72.50
2023-05-13T09:33:10.103Z,72.30
2023-05-13T09:35:41.210Z,72.00
2023-05-13T09:38:16.787Z,72.40
2023-05-13T09:40:51.939Z,71.60
2023-05-13T09:43:21.447Z,72.30
2023-05-13T09:45:53.609Z,73.40
2023-05-13T09:48:23.220Z,71.90
2023-05-13T09:50:53.593Z,71.80
2023-05-13T09:53:21.834Z,70.70
2023-05-13T09:55:50.958Z,70.60
2023-05-13T09:58:20.216Z,69.70
2023-05-13T10:00:48.961Z,69.30
2023-05-13T10:03:17.151Z,68.30
2023-05-13T10:05:45.768Z,68.40
2023-05-13T10:08:15.894Z,69.50
2023-05-13T10:10:45.741Z,70.10
2023-05-13T10:13:16.340Z,69.80
2023-05-13T10:15:50.279Z,69.80
2023-05-13T10:18:19.145Z,69.80
2023-05-13T10:20:47.831Z,68.70
2023-05-13T10:23:17.740Z,67.30
2023-05-13T10:25:48.101Z,68.00
2023-05-13T10:28:16.692Z,67.40
2023-05-13T10:30:46.045Z,68.00
2023-05-13T10:33:14.779Z,67.30
2023-05-13T10:35:54.943Z,68.10
2023-05-13T10:38:36.669Z,67.40
2023-05-13T10:41:15.837Z,66.20
2023-05-13T10:43:43.942Z,65.50
2023-05-13T10:46:14.109Z,65.20
2023-05-13T10:48:43.736Z,65.60
2023-05-13T10:51:15.828Z,66.40
2023-05-13T10:53:48.922Z,66.10
2023-05-13T10:56:17.722Z,64.30
2023-05-13T10:58:59.439Z,63.70
2023-05-13T11:01:30.218Z,64.20
2023-05-13T11:04:00.121Z,64.70
2023-05-13T11:06:32.974Z,64.40
2023-05-13T11:09:02.597Z,63.70
2023-05-13T11:11:35.513Z,64.00
2023-05-13T11:14:15.662Z,64.90
2023-05-13T11:16:48.355Z,64.70
2023-05-13T11:19:28.553Z,65.30
2023-05-13T11:21:57.905Z,64.90
2023-05-13T11:24:27.872Z,65.10
2023-05-13T11:26:57.639Z,64.70
2023-05-13T11:29:30.558Z,64.80
2023-05-13T11:32:00.636Z,65.20
2023-05-13T11:34:29.996Z,65.30
2023-05-13T11:37:07.113Z,63.80
2023-05-13T11:39:37.164Z,64.20
2023-05-13T11:42:09.063Z,63.60
2023-05-13T11:44:37.389Z,63.10
2023-05-13T11:47:08.124Z,63.50
2023-05-13T11:49:40.073Z,63.20
2023-05-13T11:52:10.310Z,62.80
2023-05-13T11:54:49.775Z,63.30
2023-05-13T11:57:22.421Z,63.90
2023-05-13T11:59:54.985Z,64.40
2023-05-13T12:02:24.170Z,64.20
2023-05-13T12:04:52.881Z,64.10
2023-05-13T12:07:22.716Z,62.40
2023-05-13T12:09:53.360Z,62.50
2023-05-13T12:12:21.888Z,62.00
2023-05-13T12:14:51.196Z,62.60
2023-05-13T12:17:19.559Z,63.70
2023-05-13T12:20:10.265Z,64.50
2023-05-13T12:22:40.044Z,63.50
2023-05-13T12:25:37.809Z,63.80
2023-05-13T12:28:10.189Z,64.20
2023-05-13T12:30:39.477Z,62.60
2023-05-13T12:33:13.140Z,62.00
2023-05-13T12:35:41.982Z,63.40
2023-05-13T12:38:14.860Z,63.20
2023-05-13T12:40:44.328Z,63.10
2023-05-13T12:43:13.211Z,61.80
2023-05-13T12:45:44.760Z,60.70
2023-05-13T12:48:14.454Z,61.20
2023-05-13T12:50:42.545Z,62.40
2023-05-13T12:53:10.528Z,62.50
2023-05-13T12:55:39.936Z,61.80
2023-05-13T12:58:13.208Z,61.40
2023-05-13T13:00:41.301Z,61.80
2023-05-13T13:03:09.433Z,60.90
2023-05-13T13:05:37.645Z,61.10
2023-05-13T13:08:06.285Z,61.50
2023-05-13T13:10:34.738Z,61.70
2023-05-13T13:13:02.736Z,62.00
2023-05-13T13:15:32.084Z,63.20
2023-05-13T13:18:00.183Z,63.20
2023-05-13T13:20:28.234Z,63.20
2023-05-13T13:22:56.202Z,63.50
2023-05-13T13:25:24.384Z,63.50
2023-05-13T13:27:52.483Z,63.70
2023-05-13T13:30:20.507Z,63.70
2023-05-13T13:32:49.928Z,63.70
2023-05-13T13:35:18.052Z,63.20
2023-05-13T13:37:46.072Z,63.50
2023-05-13T13:40:14.661Z,62.70
2023-05-13T13:42:44.552Z,62.40
2023-05-13T13:45:13.638Z,62.50
2023-05-13T13:47:41.928Z,62.00
2023-05-13T13:50:12.407Z,61.80
2023-05-13T13:52:40.475Z,61.90
2023-05-13T13:55:09.701Z,62.30
2023-05-13T13:57:37.694Z,62.20
2023-05-13T14:00:06.993Z,62.40
2023-05-13T14:02:35.107Z,62.00
2023-05-13T14:05:03.118Z,62.60
2023-05-13T14:07:32.476Z,63.00
2023-05-13T14:10:01.557Z,62.60
2023-05-13T14:12:29.698Z,62.30
2023-05-13T14:14:57.673Z,61.90
2023-05-13T14:17:25.780Z,62.40
2023-05-13T14:19:55.410Z,62.70
2023-05-13T14:22:23.895Z,63.00
2023-05-13T14:24:53.990Z,62.00
2023-05-13T14:27:24.596Z,62.20
2023-05-13T14:29:53.018Z,62.40
2023-05-13T14:32:21.041Z,62.40
2023-05-13T14:34:49.043Z,62.30
2023-05-13T14:37:17.005Z,62.50
2023-05-13T14:39:46.553Z,61.60
2023-05-13T14:42:17.808Z,62.10
2023-05-13T14:44:46.036Z,61.60
2023-05-13T14:47:14.110Z,61.60
2023-05-13T14:49:42.115Z,62.10
2023-05-13T14:52:10.113Z,61.80
2023-05-13T14:54:38.298Z,61.90
2023-05-13T14:57:07.175Z,61.60
2023-05-13T14:59:37.052Z,61.80
2023-05-13T15:02:05.575Z,61.80
2023-05-13T15:04:33.570Z,61.80
2023-05-13T15:07:03.441Z,62.00
2023-05-13T15:09:31.430Z,61.20
2023-05-13T15:11:59.429Z,61.60
2023-05-13T15:14:28.306Z,61.70
2023-05-13T15:16:58.082Z,62.10
2023-05-13T15:19:26.150Z,62.80
2023-05-13T15:21:54.307Z,62.40
2023-05-13T15:24:22.339Z,61.40
2023-05-13T15:26:50.918Z,60.60
2023-05-13T15:29:18.895Z,60.80
2023-05-13T15:31:46.848Z,62.20
2023-05-13T15:34:16.163Z,63.30
2023-05-13T15:36:44.128Z,63.80
2023-05-13T15:39:12.094Z,63.60
2023-05-13T15:41:40.004Z,60.40
2023-05-13T15:44:07.983Z,60.60
2023-05-13T15:46:36.228Z,61.30
2023-05-13T15:49:04.250Z,62.00
2023-05-13T15:51:33.914Z,62.40
2023-05-13T15:54:02.000Z,63.30
2023-05-13T15:56:29.952Z,63.70
2023-05-13T15:58:57.896Z,63.90
2023-05-13T16:01:25.965Z,64.40
2023-05-13T16:03:54.021Z,64.80
2023-05-13T16:06:22.045Z,64.80
2023-05-13T16:08:51.861Z,65.30
2023-05-13T16:11:20.843Z,65.90
2023-05-13T16:13:49.463Z,66.00
2023-05-13T16:16:17.759Z,66.50
2023-05-13T16:18:45.827Z,66.60
2023-05-13T16:21:13.990Z,66.90
2023-05-13T16:23:43.519Z,67.30
2023-05-13T16:26:12.836Z,67.90
2023-05-13T16:28:40.828Z,69.30
2023-05-13T16:31:08.907Z,69.40
2023-05-13T16:33:37.233Z,69.70
2023-05-13T16:36:05.769Z,70.20
2023-05-13T16:38:35.345Z,70.40
2023-05-13T16:41:03.532Z,70.90
2023-05-13T16:43:32.848Z,71.20
2023-05-13T16:46:00.768Z,71.10
2023-05-13T16:48:28.900Z,71.50
2023-05-13T16:50:57.025Z,72.50
2023-05-13T16:53:26.287Z,72.80
2023-05-13T16:55:54.315Z,72.50
2023-05-13T16:58:22.294Z,71.90
2023-05-13T17:00:52.382Z,70.80
2023-05-13T17:03:20.597Z,71.30
2023-05-13T17:05:48.855Z,70.60
2023-05-13T17:08:18.863Z,70.00
2023-05-13T17:10:46.842Z,69.70
2023-05-13T17:13:14.804Z,69.60
2023-05-13T17:15:42.762Z,69.90
2023-05-13T17:18:12.165Z,70.80
2023-05-13T17:20:40.121Z,70.00
2023-05-13T17:23:08.090Z,69.90
2023-05-13T17:25:36.162Z,69.70
2023-05-13T17:28:07.908Z,69.50
2023-05-13T17:30:36.086Z,70.10
2023-05-13T17:33:04.053Z,70.40
2023-05-13T17:35:34.264Z,70.30
2023-05-13T17:38:02.248Z,69.50
2023-05-13T17:40:31.154Z,69.10
2023-05-13T17:43:03.057Z,69.00
2023-05-13T17:45:31.267Z,69.00
2023-05-13T17:47:59.461Z,69.00
2023-05-13T17:50:29.878Z,69.90
2023-05-13T17:53:01.487Z,69.40
2023-05-13T17:55:29.476Z,69.70
2023-05-13T17:57:58.887Z,69.70
2023-05-13T18:00:27.255Z,69.80
2023-05-13T18:02:55.341Z,70.00
2023-05-13T18:05:23.811Z,70.20
2023-05-13T18:07:52.138Z,70.40
2023-05-13T18:10:21.638Z,71.00
2023-05-13T18:12:51.705Z,71.10
2023-05-13T18:15:19.865Z,71.40
2023-05-13T18:17:48.082Z,70.70
2023-05-13T18:20:16.128Z,70.60
2023-05-13T18:22:44.094Z,70.50
2023-05-13T18:25:12.105Z,70.60
2023-05-13T18:27:41.791Z,70.90
2023-05-13T18:30:10.888Z,71.10
2023-05-13T18:32:38.971Z,71.30
2023-05-13T18:35:07.704Z,71.60
2023-05-13T18:37:35.825Z,71.60
2023-05-13T18:40:03.899Z,71.90
2023-05-13T18:42:31.894Z,72.20
2023-05-13T18:45:01.243Z,72.60
2023-05-13T18:47:29.303Z,72.70
2023-05-13T18:49:57.280Z,73.40
2023-05-13T18:52:26.043Z,73.60
2023-05-13T18:54:54.000Z,73.60
2023-05-13T18:57:23.717Z,73.70
2023-05-13T18:59:52.238Z,73.90
2023-05-13T19:02:21.796Z,74.10
2023-05-13T19:04:49.902Z,74.30
2023-05-13T19:07:17.870Z,74.20
2023-05-13T19:09:45.828Z,74.30
2023-05-13T19:12:13.807Z,74.50
2023-05-13T19:14:42.748Z,74.60
2023-05-13T19:17:11.079Z,75.00
2023-05-13T19:19:41.013Z,75.20
2023-05-13T19:22:08.966Z,75.40
2023-05-13T19:24:37.266Z,75.50
2023-05-13T19:27:06.742Z,75.70
2023-05-13T19:29:35.299Z,75.80
2023-05-13T19:32:03.267Z,76.00
2023-05-13T19:34:31.232Z,76.20
2023-05-13T19:37:00.680Z,76.40
2023-05-13T19:39:28.627Z,76.70
2023-05-13T19:41:56.580Z,76.80
2023-05-13T19:44:27.871Z,76.90
2023-05-13T19:46:56.570Z,77.30
2023-05-13T19:49:25.440Z,77.60
2023-05-13T19:51:53.661Z,78.10
2023-05-13T19:54:22.952Z,78.90
2023-05-13T19:56:50.940Z,79.10
2023-05-13T19:59:18.929Z,79.60
2023-05-13T20:01:47.789Z,80.40
2023-05-13T20:04:16.465Z,80.70
2023-05-13T20:06:44.483Z,81.00
2023-05-13T20:09:12.489Z,81.20
2023-05-13T20:11:41.941Z,81.50
2023-05-13T20:14:11.339Z,82.00
2023-05-13T20:16:39.335Z,82.00
2023-05-13T20:19:08.329Z,82.30
2023-05-13T20:21:36.322Z,82.40
2023-05-13T20:24:04.329Z,82.70
2023-05-13T20:26:34.660Z,82.70
2023-05-13T20:29:04.066Z,83.10
2023-05-13T20:31:32.100Z,83.30
2023-05-13T20:34:00.348Z,83.40
2023-05-13T20:36:28.354Z,83.40
2023-05-13T20:38:56.312Z,83.50
2023-05-13T20:41:24.275Z,83.60
2023-05-13T20:43:52.264Z,83.50
2023-05-13T20:46:21.613Z,83.70
2023-05-13T20:48:49.618Z,84.10
2023-05-13T20:51:17.728Z,83.90
2023-05-13T20:53:46.483Z,84.10
2023-05-13T20:56:14.443Z,84.10
2023-05-13T20:58:42.399Z,84.50
2023-05-13T21:01:10.390Z,84.60
2023-05-13T21:03:39.748Z,84.60
2023-05-13T21:06:07.776Z,84.80
2023-05-13T21:08:36.895Z,84.80
2023-05-13T21:11:05.030Z,84.90
2023-05-13T21:13:34.723Z,85.10
2023-05-13T21:16:04.701Z,85.20
2023-05-13T21:18:34.069Z,85.30
2023-05-13T21:21:08.454Z,85.60
2023-05-13T21:23:37.018Z,86.00
2023-05-13T21:26:06.365Z,85.90
2023-05-13T21:28:34.329Z,86.00
2023-05-13T21:31:02.499Z,86.90
2023-05-13T21:33:30.601Z,86.20
2023-05-13T21:35:58.579Z,86.30
2023-05-13T21:38:28.639Z,86.60
2023-05-13T21:40:56.649Z,87.40
2023-05-13T21:43:24.582Z,86.70
2023-05-13T21:45:52.652Z,86.90
2023-05-13T21:48:20.978Z,87.10
2023-05-13T21:50:49.037Z,87.20
2023-05-13T21:53:17.058Z,87.40
2023-05-13T21:55:46.686Z,87.40
2023-05-13T21:58:14.645Z,87.60
2023-05-13T22:00:42.574Z,87.60
2023-05-13T22:03:10.689Z,87.80
2023-05-13T22:05:43.789Z,88.00
2023-05-13T22:08:12.174Z,88.00
2023-05-13T22:10:40.967Z,88.10
2023-05-13T22:13:10.365Z,88.30
2023-05-13T22:15:38.361Z,88.40
2023-05-13T22:18:06.826Z,88.50
2023-05-13T22:20:34.874Z,88.60
2023-05-13T22:23:02.948Z,88.70
2023-05-13T22:25:30.903Z,88.80
2023-05-13T22:27:58.878Z,88.90
2023-05-13T22:30:28.254Z,89.00
2023-05-13T22:32:57.080Z,89.00
2023-05-13T22:35:25.095Z,89.00
2023-05-13T22:37:53.123Z,89.10
2023-05-13T22:40:21.264Z,89.40
2023-05-13T22:42:49.379Z,89.30
2023-05-13T22:45:17.544Z,89.40
2023-05-13T22:47:46.973Z,89.60
2023-05-13T22:50:14.919Z,89.80
2023-05-13T22:52:42.855Z,90.30
2023-05-13T22:55:11.532Z,90.00
2023-05-13T22:57:39.560Z,90.10
2023-05-13T23:00:08.795Z,90.10
2023-05-13T23:02:36.765Z,90.30
2023-05-13T23:05:07.285Z,90.30
2023-05-13T23:07:35.264Z,90.50
2023-05-13T23:10:03.199Z,90.50
2023-05-13T23:12:31.181Z,90.50
2023-05-13T23:14:59.128Z,90.70
2023-05-13T23:17:27.140Z,90.70
2023-05-13T23:19:55.126Z,90.70
2023-05-13T23:22:24.471Z,90.80
2023-05-13T23:24:52.413Z,90.80
2023-05-13T23:27:20.766Z,90.80
2023-05-13T23:29:48.719Z,90.80
2023-05-13T23:32:16.776Z,90.90
2023-05-13T23:34:44.731Z,90.90
2023-05-13T23:37:15.471Z,91.00
2023-05-13T23:39:45.175Z,91.00
2023-05-13T23:42:13.154Z,91.10
2023-05-13T23:44:41.352Z,91.20
2023-05-13T23:47:09.307Z,91.20
2023-05-13T23:49:37.255Z,91.30
2023-05-13T23:52:05.564Z,91.40
2023-05-13T23:54:33.588Z,91.50
2023-05-13T23:57:02.915Z,91.70
2023-05-13T23:59:30.900Z,91.80
